LTAF/ADA METAR and TAF weather

Enter ICAO airport designator
Station Type Date Time Source
LTAF METAR 2020/09/18 18:50 UTC NOAA

LTAF 181850Z 14002KT 9999 SCT035 28/25 Q1010 NOSIG


Station Type Date Time Source
LTAF Decoded METAR 2020/09/18 18:50 UTC NOAA

Adana / Sakirpasa, Turkey (LTAF) 36-59N 035-18E 20M
Sep 18, 2020 - 02:50 PM EDT / 2020.09.18 1850 UTC
Wind: from the SE (140 degrees) at 2 MPH (2 KT):0
Visibility: greater than 7 mile(s):0
Sky conditions: partly cloudy
Temperature: 82 F (28 C)
Dew Point: 77 F (25 C)
Relative Humidity: 83%
Pressure (altimeter): 29.83 in. Hg (1010 hPa)
ob: LTAF 181850Z 14002KT 9999 SCT035 28/25 Q1010 NOSIG
cycle: 19

Station Type Date Time Source
LTAF TAF 2020/09/18 18:01 UTC NOAA

TAF COR LTAF 181640Z 1818/1918 VRB02KT 9999 SCT030
TEMPO 1902/1906 -SHRA BKN030 PROB40
TEMPO 1906/1910 -SHRA FEW020CB BKN030
BECMG 1908/1910 21012KT
TEMPO 1910/1914 -TSRA SCT020CB BKN030 PROB40
TEMPO 1914/1918 -TSRA SCT020CB BKN030
BECMG 1916/1918 VRB02KT

Example: see airport list